CheckWX is a tool to help pilots better visualize weather data.  It is not intended as a substitute for an official pre-flight weather briefing.

09:14:12 UTC

KCGC METAR
Crystal River-Captain Tom Davis Field Airport
Crystal River, Florida, USA
Current

19 mins ago

KCGC 250855Z AUTO 00000KT 10SM CLR 24/23 A2993 RMK AO2
Observed
Aug-25 @ 08:55 UTC
Visibility
10 SM
Flight Rules
VFR
Cloud Levels
  • Clear skies
Temperature
24°C / 75°F
Dewpoint
23°C / 73°F
Humidity
94%
Altimeter
29.93" Hg
Pressure
1013.52 hPa
Previous

39 mins ago

KCGC 250835Z AUTO 00000KT 10SM CLR 24/23 A2992 RMK AO2
Observed
Aug-25 @ 08:35 UTC
Visibility
10 SM
Flight Rules
VFR
Cloud Levels
  • Clear skies
Temperature
24°C / 75°F
Dewpoint
23°C / 73°F
Humidity
94%
Altimeter
29.92" Hg
Pressure
1013.22 hPa
Previous

59 mins ago

KCGC 250815Z AUTO 00000KT 10SM CLR 25/23 A2992 RMK AO2
Observed
Aug-25 @ 08:15 UTC
Visibility
10 SM
Flight Rules
VFR
Cloud Levels
  • Clear skies
Temperature
25°C / 77°F
Dewpoint
23°C / 73°F
Humidity
89%
Altimeter
29.92" Hg
Pressure
1013.22 hPa